createdAt,value
2018-06-09T00:00:54.072Z,5.20
2018-06-09T00:03:23.233Z,5.30
2018-06-09T00:05:52.411Z,5.03
2018-06-09T00:08:21.651Z,5.00
2018-06-09T00:10:50.783Z,5.20
2018-06-09T00:13:19.923Z,5.60
2018-06-09T00:15:49.175Z,5.70
2018-06-09T00:18:18.295Z,5.30
2018-06-09T00:20:47.457Z,5.13
2018-06-09T00:23:16.583Z,6.37
2018-06-09T00:25:45.714Z,6.10
2018-06-09T00:28:14.805Z,5.40
2018-06-09T00:30:43.952Z,5.60
2018-06-09T00:33:13.114Z,5.90
2018-06-09T00:35:42.292Z,6.87
2018-06-09T00:38:11.420Z,5.60
2018-06-09T00:40:40.543Z,5.00
2018-06-09T00:43:09.659Z,5.30
2018-06-09T00:45:38.802Z,5.00
2018-06-09T00:48:08.076Z,5.63
2018-06-09T00:50:37.508Z,6.10
2018-06-09T00:53:06.678Z,5.73
2018-06-09T00:55:36.126Z,6.20
2018-06-09T00:58:05.272Z,6.23
2018-06-09T01:00:34.364Z,5.90
2018-06-09T01:03:03.521Z,5.57
2018-06-09T01:05:32.667Z,5.37
2018-06-09T01:08:01.772Z,6.53
2018-06-09T01:10:30.915Z,5.90
2018-06-09T01:13:00.063Z,5.67
2018-06-09T01:15:29.532Z,5.73
2018-06-09T01:17:58.648Z,5.97
2018-06-09T01:20:27.783Z,5.43
2018-06-09T01:22:56.962Z,6.17
2018-06-09T01:25:26.083Z,5.43
2018-06-09T01:27:55.194Z,5.60
2018-06-09T01:30:24.309Z,5.20
2018-06-09T01:32:53.412Z,5.90
2018-06-09T01:35:22.584Z,5.57
2018-06-09T01:37:51.707Z,5.67
2018-06-09T01:40:20.812Z,5.97
2018-06-09T01:42:49.934Z,6.57
2018-06-09T01:45:19.054Z,5.90
2018-06-09T01:47:48.176Z,5.93
2018-06-09T01:50:17.308Z,6.20
2018-06-09T01:52:46.413Z,6.30
2018-06-09T01:55:15.577Z,5.63
2018-06-09T01:57:44.683Z,6.30
2018-06-09T02:00:13.824Z,6.00
2018-06-09T02:02:42.935Z,5.53
2018-06-09T02:05:12.080Z,5.87
2018-06-09T02:07:41.232Z,6.50
2018-06-09T02:10:10.419Z,6.50
2018-06-09T02:12:39.519Z,5.87
2018-06-09T02:15:08.728Z,5.90
2018-06-09T02:17:37.882Z,6.40
2018-06-09T02:20:07.179Z,5.73
2018-06-09T02:22:36.336Z,6.03
2018-06-09T02:25:05.814Z,6.10
2018-06-09T02:27:35.045Z,5.70
2018-06-09T02:30:04.196Z,6.73
2018-06-09T02:32:33.400Z,6.00
2018-06-09T02:35:02.601Z,5.50
2018-06-09T02:37:31.704Z,5.50
2018-06-09T02:40:00.937Z,5.70
2018-06-09T02:42:30.072Z,6.03
2018-06-09T02:44:59.286Z,6.13
2018-06-09T02:47:28.410Z,5.47
2018-06-09T02:49:57.543Z,5.33
2018-06-09T02:52:26.740Z,5.90
2018-06-09T02:54:55.879Z,5.43
2018-06-09T02:57:25.058Z,5.60
2018-06-09T02:59:54.242Z,5.77
2018-06-09T03:02:23.366Z,5.40
2018-06-09T03:04:52.448Z,5.30
2018-06-09T03:07:21.633Z,4.63
2018-06-09T03:09:50.859Z,6.03
2018-06-09T03:12:19.985Z,5.70
2018-06-09T03:14:49.158Z,5.80
2018-06-09T03:17:18.314Z,5.50
2018-06-09T03:19:47.459Z,6.40
2018-06-09T03:22:16.641Z,5.23
2018-06-09T03:24:45.804Z,6.40
2018-06-09T03:27:14.940Z,5.23
2018-06-09T03:29:44.058Z,5.43
2018-06-09T03:32:13.228Z,5.40
2018-06-09T03:34:42.386Z,5.03
2018-06-09T03:37:11.559Z,4.40
2018-06-09T03:39:40.750Z,5.13
2018-06-09T03:42:09.965Z,4.37
2018-06-09T03:44:39.108Z,4.77
2018-06-09T03:47:08.301Z,5.17
2018-06-09T03:49:37.534Z,4.80
2018-06-09T03:52:06.698Z,4.63
2018-06-09T03:54:35.828Z,5.20
2018-06-09T03:57:05.110Z,5.17
2018-06-09T03:59:34.240Z,5.00
2018-06-09T04:02:03.517Z,4.70
2018-06-09T04:04:32.715Z,4.87
2018-06-09T04:07:01.821Z,4.70
2018-06-09T04:09:30.986Z,5.10
2018-06-09T04:12:00.140Z,4.40
2018-06-09T04:14:29.308Z,5.10
2018-06-09T04:16:58.551Z,3.90
2018-06-09T04:19:27.678Z,4.43
2018-06-09T04:21:56.753Z,4.03
2018-06-09T04:24:25.920Z,4.20
2018-06-09T04:26:54.992Z,3.50
2018-06-09T04:29:24.156Z,4.30
2018-06-09T04:31:53.279Z,3.20
2018-06-09T04:34:22.423Z,4.00
2018-06-09T04:36:51.642Z,3.20
2018-06-09T04:39:20.865Z,3.93
2018-06-09T04:41:49.975Z,3.53
2018-06-09T04:44:19.109Z,2.90
2018-06-09T04:46:48.598Z,3.23
2018-06-09T04:49:17.763Z,2.43
2018-06-09T04:51:47.179Z,2.40
2018-06-09T04:54:16.596Z,3.00
2018-06-09T04:56:45.820Z,3.00
2018-06-09T04:59:14.954Z,3.03
2018-06-09T05:01:44.082Z,2.87
2018-06-09T05:04:14.873Z,2.77
2018-06-09T05:06:44.001Z,3.10
2018-06-09T05:09:13.160Z,3.07
2018-06-09T05:11:42.318Z,2.93
2018-06-09T05:14:11.466Z,2.60
2018-06-09T05:16:40.641Z,3.13
2018-06-09T05:19:09.788Z,2.73
2018-06-09T05:21:39.011Z,2.50
2018-06-09T05:24:08.249Z,2.60
2018-06-09T05:26:37.398Z,3.40
2018-06-09T05:29:06.576Z,3.03
2018-06-09T05:31:35.774Z,2.33
2018-06-09T05:34:04.912Z,3.10
2018-06-09T05:36:34.127Z,2.30
2018-06-09T05:39:03.516Z,2.20
2018-06-09T05:41:32.741Z,2.70
2018-06-09T05:44:02.097Z,3.17
2018-06-09T05:46:31.414Z,2.43
2018-06-09T05:49:00.694Z,2.07
2018-06-09T05:51:29.831Z,2.43
2018-06-09T05:53:59.153Z,2.73
2018-06-09T05:56:29.998Z,3.63
2018-06-09T05:58:59.211Z,4.20
2018-06-09T06:01:28.353Z,3.50
2018-06-09T06:03:57.691Z,4.03
2018-06-09T06:06:27.611Z,2.73
2018-06-09T06:08:57.851Z,2.67
2018-06-09T06:11:27.016Z,2.90
2018-06-09T06:13:56.239Z,2.77
2018-06-09T06:16:26.209Z,3.33
2018-06-09T06:18:55.969Z,3.60
2018-06-09T06:21:25.118Z,3.73
2018-06-09T06:23:54.234Z,3.87
2018-06-09T06:26:23.414Z,3.67
2018-06-09T06:28:52.630Z,3.10
2018-06-09T06:31:21.749Z,3.10
2018-06-09T06:33:50.845Z,4.23
2018-06-09T06:36:19.965Z,3.17
2018-06-09T06:38:49.365Z,2.97
2018-06-09T06:41:18.848Z,2.93
2018-06-09T06:43:48.001Z,3.03
2018-06-09T06:46:17.151Z,2.83
2018-06-09T06:48:46.258Z,3.10
2018-06-09T06:51:15.407Z,2.90
2018-06-09T06:53:44.532Z,2.60
2018-06-09T06:56:13.662Z,3.33
2018-06-09T06:58:42.771Z,3.10
2018-06-09T07:01:13.575Z,2.63
2018-06-09T07:03:43.146Z,2.97
2018-06-09T07:06:12.320Z,2.47
2018-06-09T07:08:41.437Z,2.80
2018-06-09T07:11:10.601Z,3.00
2018-06-09T07:13:40.543Z,2.50
2018-06-09T07:16:09.964Z,3.03
2018-06-09T07:18:39.116Z,2.73
2018-06-09T07:21:08.242Z,2.77
2018-06-09T07:23:37.393Z,3.20
2018-06-09T07:26:06.655Z,2.93
2018-06-09T07:28:35.835Z,3.23
2018-06-09T07:31:05.020Z,2.77
2018-06-09T07:33:34.301Z,2.63
2018-06-09T07:36:03.539Z,2.70
2018-06-09T07:38:32.682Z,2.80
2018-06-09T07:41:01.939Z,3.07
2018-06-09T07:43:31.513Z,2.97
2018-06-09T07:46:00.629Z,3.73
2018-06-09T07:48:29.741Z,2.90
2018-06-09T07:50:59.789Z,2.73
2018-06-09T07:53:29.091Z,2.80
2018-06-09T07:55:58.661Z,2.93
2018-06-09T07:58:27.844Z,2.30
2018-06-09T08:00:57.010Z,4.00
2018-06-09T08:03:26.214Z,3.20
2018-06-09T08:05:55.364Z,2.27
2018-06-09T08:08:24.487Z,2.80
2018-06-09T08:10:53.656Z,2.97
2018-06-09T08:13:22.826Z,2.73
2018-06-09T08:15:52.242Z,2.90
2018-06-09T08:18:21.501Z,2.90
2018-06-09T08:20:50.635Z,3.43
2018-06-09T08:23:19.741Z,2.77
2018-06-09T08:25:48.872Z,2.70
2018-06-09T08:28:18.061Z,3.03
2018-06-09T08:30:47.193Z,3.03
2018-06-09T08:33:16.287Z,2.47
2018-06-09T08:35:45.681Z,2.97
2018-06-09T08:38:14.792Z,2.50
2018-06-09T08:40:44.003Z,2.57
2018-06-09T08:43:13.114Z,2.73
2018-06-09T08:45:42.359Z,3.60
2018-06-09T08:48:11.500Z,2.00
2018-06-09T08:50:40.635Z,2.83
2018-06-09T08:53:09.754Z,2.83
2018-06-09T08:55:38.954Z,3.33
2018-06-09T08:58:08.439Z,2.80
2018-06-09T09:00:37.726Z,2.53
2018-06-09T09:03:06.973Z,2.67
2018-06-09T09:05:36.277Z,2.60
2018-06-09T09:08:05.978Z,2.10
2018-06-09T09:10:35.101Z,2.50
2018-06-09T09:13:04.757Z,2.30
2018-06-09T09:15:33.857Z,2.57
2018-06-09T09:18:03.185Z,2.43
2018-06-09T09:20:32.643Z,2.50
2018-06-09T09:23:02.872Z,2.40
2018-06-09T09:25:32.349Z,2.53
2018-06-09T09:28:01.619Z,2.83
2018-06-09T09:30:31.361Z,2.70
2018-06-09T09:33:00.596Z,2.93
2018-06-09T09:35:29.753Z,3.20
2018-06-09T09:37:59.326Z,2.23
2018-06-09T09:40:29.160Z,2.40
2018-06-09T09:42:58.357Z,2.23
2018-06-09T09:45:27.604Z,2.20
2018-06-09T09:47:56.878Z,2.53
2018-06-09T09:50:26.080Z,2.60
2018-06-09T09:52:55.190Z,2.20
2018-06-09T09:55:26.313Z,2.43
2018-06-09T09:58:02.490Z,2.43
2018-06-09T10:00:38.104Z,1.90
2018-06-09T10:03:07.398Z,1.90
2018-06-09T10:05:36.823Z,2.20
2018-06-09T10:08:06.070Z,2.67
2018-06-09T10:10:35.422Z,1.83
2018-06-09T10:13:04.565Z,2.53
2018-06-09T10:15:33.812Z,2.20
2018-06-09T10:18:05.991Z,2.23
2018-06-09T10:20:35.344Z,2.40
2018-06-09T10:23:04.492Z,1.87
2018-06-09T10:25:34.201Z,2.10
2018-06-09T10:28:03.551Z,2.20
2018-06-09T10:30:32.640Z,2.00
2018-06-09T10:33:01.874Z,1.70
2018-06-09T10:35:30.971Z,1.80
2018-06-09T10:38:01.206Z,2.30
2018-06-09T10:40:30.394Z,1.80
2018-06-09T10:42:59.645Z,2.17
2018-06-09T10:45:29.318Z,1.90
2018-06-09T10:47:58.611Z,1.50
2018-06-09T10:50:27.839Z,1.93
2018-06-09T10:52:57.162Z,1.90
2018-06-09T10:55:26.532Z,1.93
2018-06-09T10:57:57.621Z,2.03
2018-06-09T11:00:26.791Z,1.80
2018-06-09T11:02:57.176Z,1.87
2018-06-09T11:05:30.399Z,1.87
2018-06-09T11:07:59.672Z,2.60
2018-06-09T11:10:28.883Z,2.33
2018-06-09T11:12:58.094Z,2.43
2018-06-09T11:15:27.222Z,2.20
2018-06-09T11:17:56.633Z,2.20
2018-06-09T11:20:25.756Z,1.60
2018-06-09T11:22:54.894Z,2.20
2018-06-09T11:25:23.992Z,1.50
2018-06-09T11:27:53.076Z,1.93
2018-06-09T11:30:22.204Z,2.13
2018-06-09T11:32:51.330Z,1.90
2018-06-09T11:35:20.614Z,2.10
2018-06-09T11:37:49.764Z,1.87
2018-06-09T11:40:19.264Z,1.90
2018-06-09T11:42:48.483Z,1.73
2018-06-09T11:45:17.824Z,1.70
2018-06-09T11:47:47.074Z,1.53
2018-06-09T11:50:16.501Z,1.80
2018-06-09T11:52:45.637Z,2.00
2018-06-09T11:55:15.633Z,1.80
2018-06-09T11:57:44.859Z,1.80
2018-06-09T12:00:14.085Z,2.00
2018-06-09T12:02:43.254Z,1.80
2018-06-09T12:05:12.492Z,1.77
2018-06-09T12:07:41.718Z,3.13
2018-06-09T12:10:10.921Z,2.80
2018-06-09T12:12:40.442Z,2.07
2018-06-09T12:15:09.766Z,2.23
2018-06-09T12:17:40.034Z,1.80
2018-06-09T12:20:09.361Z,2.47
2018-06-09T12:22:38.917Z,1.90
2018-06-09T12:25:08.192Z,2.17
2018-06-09T12:27:37.346Z,1.80
2018-06-09T12:30:06.480Z,1.80
2018-06-09T12:32:35.944Z,1.80
2018-06-09T12:35:05.091Z,2.00
2018-06-09T12:37:34.252Z,2.03
2018-06-09T12:40:03.446Z,1.60
2018-06-09T12:42:33.040Z,1.90
2018-06-09T12:45:02.459Z,2.03
2018-06-09T12:47:31.649Z,1.97
2018-06-09T12:50:00.945Z,1.80
2018-06-09T12:52:30.753Z,2.00
2018-06-09T12:55:00.109Z,2.07
2018-06-09T12:57:30.281Z,1.97
2018-06-09T12:59:59.681Z,2.40
2018-06-09T13:02:28.907Z,2.17
2018-06-09T13:04:58.265Z,1.90
2018-06-09T13:07:27.669Z,2.67
2018-06-09T13:09:56.858Z,2.20
2018-06-09T13:12:26.080Z,2.30
2018-06-09T13:14:56.118Z,2.43
2018-06-09T13:17:25.855Z,2.63
2018-06-09T13:19:55.013Z,2.83
2018-06-09T13:22:24.393Z,2.93
2018-06-09T13:24:53.657Z,2.67
2018-06-09T13:27:22.920Z,2.63
2018-06-09T13:29:52.259Z,2.70
2018-06-09T13:32:21.588Z,2.90
2018-06-09T13:34:50.812Z,2.73
2018-06-09T13:37:20.061Z,2.53
2018-06-09T13:39:49.336Z,2.67
2018-06-09T13:42:18.467Z,2.53
2018-06-09T13:44:47.695Z,2.37
2018-06-09T13:47:17.272Z,2.53
2018-06-09T13:49:46.422Z,2.60
2018-06-09T13:52:15.579Z,2.93
2018-06-09T13:54:45.604Z,3.00
2018-06-09T13:57:14.897Z,2.27
2018-06-09T13:59:44.302Z,2.40
2018-06-09T14:02:13.463Z,2.57
2018-06-09T14:04:42.669Z,3.30
2018-06-09T14:07:11.837Z,2.63
2018-06-09T14:09:40.984Z,5.67
2018-06-09T14:12:10.146Z,3.10
2018-06-09T14:14:39.416Z,2.63
2018-06-09T14:17:09.402Z,2.80
2018-06-09T14:19:38.597Z,3.07
2018-06-09T14:22:07.729Z,3.00
2018-06-09T14:24:36.857Z,3.10
2018-06-09T14:27:06.033Z,2.60
2018-06-09T14:29:35.190Z,2.73
2018-06-09T14:32:04.407Z,2.43
2018-06-09T14:34:33.675Z,2.50
2018-06-09T14:37:03.097Z,2.40
2018-06-09T14:39:32.401Z,2.47
2018-06-09T14:42:01.805Z,2.67
2018-06-09T14:44:31.771Z,3.30
2018-06-09T14:47:01.192Z,2.30
2018-06-09T14:49:30.324Z,2.93
2018-06-09T14:51:59.478Z,3.00
2018-06-09T14:54:28.688Z,2.90
2018-06-09T14:56:58.661Z,3.10
2018-06-09T14:59:27.815Z,2.20
2018-06-09T15:01:56.995Z,3.07
2018-06-09T15:04:26.224Z,2.63
2018-06-09T15:06:56.216Z,2.63
2018-06-09T15:09:25.392Z,2.57
2018-06-09T15:11:54.563Z,2.30
2018-06-09T15:14:23.683Z,2.57
2018-06-09T15:16:52.871Z,2.40
2018-06-09T15:19:22.160Z,2.30
2018-06-09T15:21:51.359Z,2.80
2018-06-09T15:24:20.540Z,2.73
2018-06-09T15:26:49.701Z,2.70
2018-06-09T15:29:18.921Z,2.87
2018-06-09T15:31:48.042Z,2.73
2018-06-09T15:34:17.221Z,2.70
2018-06-09T15:36:46.540Z,2.87
2018-06-09T15:39:15.920Z,2.63
2018-06-09T15:41:45.254Z,2.90
2018-06-09T15:44:14.587Z,2.97
2018-06-09T15:46:43.754Z,2.93
2018-06-09T15:49:13.264Z,3.10
2018-06-09T15:51:42.744Z,2.93
2018-06-09T15:54:11.965Z,3.20
2018-06-09T15:56:41.129Z,3.00
2018-06-09T15:59:10.276Z,2.90
2018-06-09T16:01:39.473Z,2.87
2018-06-09T16:04:08.606Z,2.70
2018-06-09T16:06:37.717Z,2.90
2018-06-09T16:09:08.590Z,2.73
2018-06-09T16:11:37.925Z,2.80
2018-06-09T16:14:07.053Z,3.23
2018-06-09T16:16:36.174Z,2.43
2018-06-09T16:19:05.300Z,4.00
2018-06-09T16:21:34.447Z,3.57
2018-06-09T16:24:04.485Z,3.97
2018-06-09T16:26:33.661Z,3.70
2018-06-09T16:29:02.832Z,3.90
2018-06-09T16:31:32.044Z,3.47
2018-06-09T16:34:01.246Z,4.10
2018-06-09T16:36:30.530Z,3.73
2018-06-09T16:38:59.670Z,3.33
2018-06-09T16:41:28.986Z,3.67
2018-06-09T16:43:58.243Z,3.83
2018-06-09T16:46:27.421Z,3.20
2018-06-09T16:48:56.577Z,3.20
2018-06-09T16:51:26.083Z,3.60
2018-06-09T16:53:55.473Z,3.80
2018-06-09T16:56:24.709Z,3.10
2018-06-09T16:58:53.987Z,3.20
2018-06-09T17:01:23.219Z,3.50
2018-06-09T17:03:52.954Z,3.17
2018-06-09T17:06:22.102Z,2.90
2018-06-09T17:08:51.811Z,3.07
2018-06-09T17:11:21.009Z,3.07
2018-06-09T17:13:50.114Z,3.43
2018-06-09T17:16:19.755Z,2.90
2018-06-09T17:18:48.912Z,3.47
2018-06-09T17:21:18.023Z,2.80
2018-06-09T17:23:47.200Z,3.20
2018-06-09T17:26:16.329Z,3.03
2018-06-09T17:28:45.496Z,3.33
2018-06-09T17:31:14.728Z,3.33
2018-06-09T17:33:44.856Z,2.70
2018-06-09T17:36:14.016Z,3.00
2018-06-09T17:38:43.317Z,2.60
2018-06-09T17:41:12.641Z,2.30
2018-06-09T17:43:41.871Z,3.07
2018-06-09T17:46:11.037Z,2.93
2018-06-09T17:48:40.228Z,2.70
2018-06-09T17:51:09.443Z,2.63
2018-06-09T17:53:38.579Z,2.27
2018-06-09T17:56:07.993Z,2.80
2018-06-09T17:58:37.970Z,2.77
2018-06-09T18:01:07.506Z,3.27
2018-06-09T18:03:37.340Z,2.50
2018-06-09T18:06:16.231Z,2.97
2018-06-09T18:08:45.371Z,2.70
2018-06-09T18:11:14.756Z,3.10
2018-06-09T18:13:43.853Z,3.00
2018-06-09T18:16:14.048Z,2.50
2018-06-09T18:18:43.289Z,2.67
2018-06-09T18:23:53.108Z,2.40
2018-06-09T18:26:22.556Z,3.10
2018-06-09T18:28:51.708Z,2.63
2018-06-09T18:31:21.914Z,2.60
2018-06-09T18:33:51.091Z,2.43
2018-06-09T18:36:20.709Z,2.57
2018-06-09T18:38:49.915Z,2.87
2018-06-09T18:41:19.032Z,2.00
2018-06-09T18:43:48.203Z,2.50
2018-06-09T18:46:17.624Z,2.70
2018-06-09T18:48:47.020Z,2.60
2018-06-09T18:51:16.171Z,2.37
2018-06-09T18:53:46.283Z,2.70
2018-06-09T18:56:15.786Z,2.77
2018-06-09T18:58:45.477Z,2.40
2018-06-09T19:01:14.883Z,2.97
2018-06-09T19:03:44.264Z,2.80
2018-06-09T19:06:14.464Z,2.37
2018-06-09T19:08:44.193Z,2.73
2018-06-09T19:11:14.091Z,2.50
2018-06-09T19:13:44.409Z,2.50
2018-06-09T19:16:14.576Z,2.57
2018-06-09T19:18:44.521Z,2.30
2018-06-09T19:21:15.612Z,2.30
2018-06-09T19:23:46.058Z,2.10
2018-06-09T19:26:16.446Z,3.00
2018-06-09T19:28:45.869Z,2.83
2018-06-09T19:31:15.466Z,2.43
2018-06-09T19:33:45.715Z,2.50
2018-06-09T19:36:14.800Z,2.10
2018-06-09T19:38:44.479Z,3.43
2018-06-09T19:41:15.121Z,2.73
2018-06-09T19:43:44.728Z,2.17
2018-06-09T19:46:14.676Z,2.60
2018-06-09T19:48:44.144Z,2.60
2018-06-09T19:51:13.783Z,2.50
2018-06-09T19:53:43.437Z,2.70
2018-06-09T19:56:12.655Z,3.00
2018-06-09T19:58:42.865Z,2.50
2018-06-09T20:01:12.308Z,2.70
2018-06-09T20:03:42.296Z,2.93
2018-06-09T20:06:11.972Z,2.40
2018-06-09T20:08:42.123Z,3.03
2018-06-09T20:11:11.441Z,2.80
2018-06-09T20:13:42.159Z,2.83
2018-06-09T20:16:11.626Z,2.27
2018-06-09T20:18:41.078Z,2.20
2018-06-09T20:21:10.250Z,2.33
2018-06-09T20:23:39.385Z,2.80
2018-06-09T20:26:08.499Z,2.30
2018-06-09T20:28:37.762Z,2.53
2018-06-09T20:31:07.227Z,2.00
2018-06-09T20:33:36.397Z,2.60
2018-06-09T20:36:05.622Z,2.60
2018-06-09T20:38:34.827Z,2.43
2018-06-09T20:41:04.039Z,2.20
2018-06-09T20:43:33.193Z,3.23
2018-06-09T20:46:02.663Z,2.27
2018-06-09T20:48:31.965Z,2.23
2018-06-09T20:51:01.365Z,2.77
2018-06-09T20:53:30.492Z,2.77
2018-06-09T20:55:59.696Z,2.37
2018-06-09T20:58:43.156Z,1.90
2018-06-09T21:01:12.374Z,2.10
2018-06-09T21:03:41.641Z,2.50
2018-06-09T21:06:10.715Z,1.70
2018-06-09T21:08:40.020Z,2.63
2018-06-09T21:11:09.338Z,2.40
2018-06-09T21:13:38.504Z,2.90
2018-06-09T21:16:07.963Z,2.80
2018-06-09T21:18:37.237Z,2.80
2018-06-09T21:21:06.497Z,2.20
2018-06-09T21:23:35.850Z,2.20
2018-06-09T21:26:05.042Z,2.90
2018-06-09T21:28:39.343Z,2.00
2018-06-09T21:31:13.851Z,2.23
2018-06-09T21:34:05.137Z,2.17
2018-06-09T21:36:39.636Z,3.00
2018-06-09T21:39:19.983Z,2.50
2018-06-09T21:43:56.185Z,3.00
2018-06-09T21:46:30.530Z,3.47
2018-06-09T21:48:59.690Z,3.10
2018-06-09T21:51:28.816Z,2.83
2018-06-09T21:53:58.104Z,3.30
2018-06-09T21:56:27.182Z,3.17
2018-06-09T21:58:56.283Z,3.50
2018-06-09T22:01:25.443Z,3.27
2018-06-09T22:03:54.658Z,3.17
2018-06-09T22:06:23.789Z,2.60
2018-06-09T22:08:52.936Z,3.00
2018-06-09T22:11:22.081Z,3.20
2018-06-09T22:13:51.206Z,2.97
2018-06-09T22:16:20.520Z,2.63
2018-06-09T22:18:49.666Z,3.30
2018-06-09T22:21:18.934Z,2.87
2018-06-09T22:23:48.262Z,3.20
2018-06-09T22:26:17.618Z,3.07
2018-06-09T22:28:47.123Z,2.60
2018-06-09T22:31:16.372Z,2.93
2018-06-09T22:33:45.739Z,2.97
2018-06-09T22:36:15.217Z,2.87
2018-06-09T22:38:44.340Z,3.43
2018-06-09T22:41:13.526Z,3.23
2018-06-09T22:43:42.674Z,3.60
2018-06-09T22:46:11.923Z,4.37
2018-06-09T22:48:41.151Z,4.23
2018-06-09T22:51:10.284Z,3.57
2018-06-09T22:53:40.624Z,3.20
2018-06-09T22:56:09.853Z,3.10
2018-06-09T22:58:39.253Z,3.60
2018-06-09T23:01:08.650Z,3.10
2018-06-09T23:03:37.937Z,3.03
2018-06-09T23:06:07.265Z,3.93
2018-06-09T23:08:36.546Z,3.73
2018-06-09T23:11:05.749Z,3.17
2018-06-09T23:13:35.078Z,3.97
2018-06-09T23:16:04.217Z,3.90
2018-06-09T23:18:33.571Z,3.00
2018-06-09T23:21:03.677Z,3.47
2018-06-09T23:23:33.736Z,3.57
2018-06-09T23:26:03.115Z,3.33
2018-06-09T23:28:33.606Z,3.03
2018-06-09T23:31:03.482Z,3.40
2018-06-09T23:33:32.697Z,3.30
2018-06-09T23:36:01.980Z,3.43
2018-06-09T23:38:31.383Z,3.37
2018-06-09T23:41:01.659Z,3.03
2018-06-09T23:43:31.471Z,3.40
2018-06-09T23:46:01.765Z,3.10
2018-06-09T23:48:31.566Z,3.23
2018-06-09T23:51:00.890Z,3.43
2018-06-09T23:53:30.779Z,3.37
2018-06-09T23:56:01.308Z,3.33
2018-06-09T23:58:31.287Z,3.30
